sensor_id;sensor_type;location;lat;lon;timestamp;P1;durP1;ratioP1;P2;durP2;ratioP2
22332;SDS011;11334;36.986;-121.936;2022-11-15T00:02:07;6.95;;;1.42;;
22332;SDS011;11334;36.986;-121.936;2022-11-15T00:04:33;4.93;;;1.60;;
22332;SDS011;11334;36.986;-121.936;2022-11-15T00:06:59;6.10;;;2.05;;
22332;SDS011;11334;36.986;-121.936;2022-11-15T00:09:26;4.53;;;1.80;;
22332;SDS011;11334;36.986;-121.936;2022-11-15T00:11:52;5.88;;;2.47;;
22332;SDS011;11334;36.986;-121.936;2022-11-15T00:14:18;7.40;;;2.08;;
22332;SDS011;11334;36.986;-121.936;2022-11-15T00:16:44;9.38;;;2.55;;
22332;SDS011;11334;36.986;-121.936;2022-11-15T00:19:11;6.07;;;2.30;;
22332;SDS011;11334;36.986;-121.936;2022-11-15T00:21:37;6.93;;;2.58;;
22332;SDS011;11334;36.986;-121.936;2022-11-15T00:24:03;8.25;;;2.90;;
22332;SDS011;11334;36.986;-121.936;2022-11-15T00:26:29;7.40;;;2.72;;
22332;SDS011;11334;36.986;-121.936;2022-11-15T00:28:56;10.07;;;3.53;;
22332;SDS011;11334;36.986;-121.936;2022-11-15T00:31:22;9.38;;;2.75;;
22332;SDS011;11334;36.986;-121.936;2022-11-15T00:33:48;9.63;;;2.90;;
22332;SDS011;11334;36.986;-121.936;2022-11-15T00:36:14;9.35;;;2.85;;
22332;SDS011;11334;36.986;-121.936;2022-11-15T00:38:41;10.23;;;2.95;;
22332;SDS011;11334;36.986;-121.936;2022-11-15T00:41:07;10.20;;;2.30;;
22332;SDS011;11334;36.986;-121.936;2022-11-15T00:43:34;13.25;;;2.85;;
22332;SDS011;11334;36.986;-121.936;2022-11-15T00:46:00;13.13;;;2.72;;
22332;SDS011;11334;36.986;-121.936;2022-11-15T00:48:27;10.73;;;3.08;;
22332;SDS011;11334;36.986;-121.936;2022-11-15T00:50:54;8.90;;;2.80;;
22332;SDS011;11334;36.986;-121.936;2022-11-15T00:53:20;7.88;;;2.90;;
22332;SDS011;11334;36.986;-121.936;2022-11-15T00:55:46;11.20;;;3.50;;
22332;SDS011;11334;36.986;-121.936;2022-11-15T00:58:12;11.75;;;3.33;;
22332;SDS011;11334;36.986;-121.936;2022-11-15T01:00:39;9.25;;;2.80;;
22332;SDS011;11334;36.986;-121.936;2022-11-15T01:03:05;7.63;;;3.30;;
22332;SDS011;11334;36.986;-121.936;2022-11-15T01:05:31;10.75;;;4.28;;
22332;SDS011;11334;36.986;-121.936;2022-11-15T01:07:57;10.98;;;4.95;;
22332;SDS011;11334;36.986;-121.936;2022-11-15T01:10:24;14.20;;;5.10;;
22332;SDS011;11334;36.986;-121.936;2022-11-15T01:12:51;9.65;;;5.20;;
22332;SDS011;11334;36.986;-121.936;2022-11-15T01:15:17;9.32;;;5.18;;
22332;SDS011;11334;36.986;-121.936;2022-11-15T01:17:43;8.02;;;5.00;;
22332;SDS011;11334;36.986;-121.936;2022-11-15T01:20:10;11.50;;;4.68;;
22332;SDS011;11334;36.986;-121.936;2022-11-15T01:22:36;8.07;;;4.25;;
22332;SDS011;11334;36.986;-121.936;2022-11-15T01:25:02;7.22;;;4.60;;
22332;SDS011;11334;36.986;-121.936;2022-11-15T01:27:29;11.70;;;4.53;;
22332;SDS011;11334;36.986;-121.936;2022-11-15T01:29:55;8.23;;;4.25;;
22332;SDS011;11334;36.986;-121.936;2022-11-15T01:32:21;6.30;;;4.22;;
22332;SDS011;11334;36.986;-121.936;2022-11-15T01:34:47;9.05;;;3.78;;
22332;SDS011;11334;36.986;-121.936;2022-11-15T01:37:14;6.38;;;3.45;;
22332;SDS011;11334;36.986;-121.936;2022-11-15T01:39:40;6.70;;;3.13;;
22332;SDS011;11334;36.986;-121.936;2022-11-15T01:42:09;4.45;;;2.55;;
22332;SDS011;11334;36.986;-121.936;2022-11-15T01:47:18;13.63;;;10.75;;
22332;SDS011;11334;36.986;-121.936;2022-11-15T01:49:58;16.98;;;15.23;;
22332;SDS011;11334;36.986;-121.936;2022-11-15T01:52:36;12.00;;;10.45;;
22332;SDS011;11334;36.986;-121.936;2022-11-15T01:57:37;7.15;;;4.15;;
22332;SDS011;11334;36.986;-121.936;2022-11-15T02:00:06;4.80;;;3.58;;
22332;SDS011;11334;36.986;-121.936;2022-11-15T02:02:33;7.30;;;4.70;;
22332;SDS011;11334;36.986;-121.936;2022-11-15T02:05:01;5.40;;;4.25;;
22332;SDS011;11334;36.986;-121.936;2022-11-15T02:07:28;7.45;;;4.53;;
22332;SDS011;11334;36.986;-121.936;2022-11-15T02:09:58;7.65;;;3.58;;
22332;SDS011;11334;36.986;-121.936;2022-11-15T02:12:32;6.05;;;3.08;;
22332;SDS011;11334;36.986;-121.936;2022-11-15T02:14:59;4.00;;;2.70;;
22332;SDS011;11334;36.986;-121.936;2022-11-15T02:17:31;2.83;;;2.20;;
22332;SDS011;11334;36.986;-121.936;2022-11-15T02:30:40;6.05;;;2.65;;
22332;SDS011;11334;36.986;-121.936;2022-11-15T02:33:46;3.95;;;2.42;;
22332;SDS011;11334;36.986;-121.936;2022-11-15T02:41:46;5.35;;;3.25;;
22332;SDS011;11334;36.986;-121.936;2022-11-15T02:44:22;5.28;;;3.25;;
22332;SDS011;11334;36.986;-121.936;2022-11-15T02:46:57;4.68;;;3.20;;
22332;SDS011;11334;36.986;-121.936;2022-11-15T02:49:49;6.65;;;3.75;;
22332;SDS011;11334;36.986;-121.936;2022-11-15T02:52:19;4.75;;;2.72;;
22332;SDS011;11334;36.986;-121.936;2022-11-15T02:54:54;4.25;;;2.50;;
22332;SDS011;11334;36.986;-121.936;2022-11-15T03:00:03;4.13;;;3.05;;
22332;SDS011;11334;36.986;-121.936;2022-11-15T03:08:02;6.45;;;2.90;;
22332;SDS011;11334;36.986;-121.936;2022-11-15T03:16:29;2.70;;;2.15;;
22332;SDS011;11334;36.986;-121.936;2022-11-15T03:19:28;7.38;;;3.50;;
22332;SDS011;11334;36.986;-121.936;2022-11-15T03:22:00;7.10;;;2.72;;
22332;SDS011;11334;36.986;-121.936;2022-11-15T03:24:31;5.28;;;2.20;;
22332;SDS011;11334;36.986;-121.936;2022-11-15T03:27:02;3.13;;;2.30;;
22332;SDS011;11334;36.986;-121.936;2022-11-15T03:29:35;3.47;;;2.20;;
22332;SDS011;11334;36.986;-121.936;2022-11-15T03:32:09;4.75;;;2.40;;
22332;SDS011;11334;36.986;-121.936;2022-11-15T03:40:18;5.35;;;2.10;;
22332;SDS011;11334;36.986;-121.936;2022-11-15T03:45:56;4.07;;;1.80;;
22332;SDS011;11334;36.986;-121.936;2022-11-15T03:48:33;4.43;;;2.10;;
22332;SDS011;11334;36.986;-121.936;2022-11-15T03:51:05;4.38;;;2.03;;
22332;SDS011;11334;36.986;-121.936;2022-11-15T03:53:32;3.83;;;2.30;;
22332;SDS011;11334;36.986;-121.936;2022-11-15T03:55:58;5.47;;;3.05;;
22332;SDS011;11334;36.986;-121.936;2022-11-15T03:58:24;4.75;;;2.50;;
22332;SDS011;11334;36.986;-121.936;2022-11-15T04:00:50;4.55;;;2.70;;
22332;SDS011;11334;36.986;-121.936;2022-11-15T04:03:17;6.93;;;2.95;;
22332;SDS011;11334;36.986;-121.936;2022-11-15T04:05:43;4.18;;;2.78;;
22332;SDS011;11334;36.986;-121.936;2022-11-15T04:08:09;2.78;;;2.33;;
22332;SDS011;11334;36.986;-121.936;2022-11-15T04:10:36;5.35;;;3.00;;
22332;SDS011;11334;36.986;-121.936;2022-11-15T04:13:02;3.67;;;2.30;;
22332;SDS011;11334;36.986;-121.936;2022-11-15T04:15:28;5.22;;;2.20;;
22332;SDS011;11334;36.986;-121.936;2022-11-15T04:17:55;4.55;;;2.50;;
22332;SDS011;11334;36.986;-121.936;2022-11-15T04:20:26;2.75;;;1.83;;
22332;SDS011;11334;36.986;-121.936;2022-11-15T04:23:13;4.25;;;1.80;;
22332;SDS011;11334;36.986;-121.936;2022-11-15T04:26:06;4.47;;;1.98;;
22332;SDS011;11334;36.986;-121.936;2022-11-15T04:28:36;3.83;;;1.90;;
22332;SDS011;11334;36.986;-121.936;2022-11-15T04:31:21;2.10;;;1.77;;
22332;SDS011;11334;36.986;-121.936;2022-11-15T04:33:48;5.00;;;2.05;;
22332;SDS011;11334;36.986;-121.936;2022-11-15T04:36:14;5.95;;;2.30;;
22332;SDS011;11334;36.986;-121.936;2022-11-15T04:38:59;3.65;;;1.98;;
22332;SDS011;11334;36.986;-121.936;2022-11-15T04:41:25;2.58;;;1.90;;
22332;SDS011;11334;36.986;-121.936;2022-11-15T04:43:51;4.78;;;1.70;;
22332;SDS011;11334;36.986;-121.936;2022-11-15T04:46:17;6.47;;;2.20;;
22332;SDS011;11334;36.986;-121.936;2022-11-15T04:48:43;5.53;;;2.10;;
22332;SDS011;11334;36.986;-121.936;2022-11-15T04:51:09;4.63;;;2.35;;
22332;SDS011;11334;36.986;-121.936;2022-11-15T04:53:36;7.50;;;2.03;;
22332;SDS011;11334;36.986;-121.936;2022-11-15T04:56:02;4.25;;;2.53;;
22332;SDS011;11334;36.986;-121.936;2022-11-15T04:58:28;5.55;;;2.25;;
22332;SDS011;11334;36.986;-121.936;2022-11-15T05:00:54;4.45;;;2.40;;
22332;SDS011;11334;36.986;-121.936;2022-11-15T05:03:21;3.08;;;1.90;;
22332;SDS011;11334;36.986;-121.936;2022-11-15T05:06:05;3.53;;;1.88;;
22332;SDS011;11334;36.986;-121.936;2022-11-15T05:08:32;5.65;;;2.10;;
22332;SDS011;11334;36.986;-121.936;2022-11-15T05:10:58;6.90;;;2.38;;
22332;SDS011;11334;36.986;-121.936;2022-11-15T05:13:24;2.92;;;1.90;;
22332;SDS011;11334;36.986;-121.936;2022-11-15T05:15:50;4.32;;;2.10;;
22332;SDS011;11334;36.986;-121.936;2022-11-15T05:18:16;7.15;;;2.85;;
22332;SDS011;11334;36.986;-121.936;2022-11-15T05:20:43;2.78;;;2.25;;
22332;SDS011;11334;36.986;-121.936;2022-11-15T05:23:09;3.50;;;2.17;;
22332;SDS011;11334;36.986;-121.936;2022-11-15T05:25:35;4.03;;;2.45;;
22332;SDS011;11334;36.986;-121.936;2022-11-15T05:28:02;2.85;;;2.38;;
22332;SDS011;11334;36.986;-121.936;2022-11-15T05:30:30;7.05;;;2.85;;
22332;SDS011;11334;36.986;-121.936;2022-11-15T05:32:56;6.10;;;2.95;;
22332;SDS011;11334;36.986;-121.936;2022-11-15T05:35:57;4.72;;;2.28;;
22332;SDS011;11334;36.986;-121.936;2022-11-15T05:38:18;2.67;;;2.03;;
22332;SDS011;11334;36.986;-121.936;2022-11-15T05:40:45;6.78;;;2.30;;
22332;SDS011;11334;36.986;-121.936;2022-11-15T05:43:11;5.82;;;2.15;;
22332;SDS011;11334;36.986;-121.936;2022-11-15T05:45:37;4.43;;;1.85;;
22332;SDS011;11334;36.986;-121.936;2022-11-15T05:48:04;3.65;;;2.10;;
22332;SDS011;11334;36.986;-121.936;2022-11-15T05:50:33;4.32;;;2.50;;
22332;SDS011;11334;36.986;-121.936;2022-11-15T05:53:02;4.53;;;2.00;;
22332;SDS011;11334;36.986;-121.936;2022-11-15T05:55:28;4.50;;;2.15;;
22332;SDS011;11334;36.986;-121.936;2022-11-15T05:57:55;2.53;;;2.05;;
22332;SDS011;11334;36.986;-121.936;2022-11-15T06:00:21;3.15;;;1.95;;
22332;SDS011;11334;36.986;-121.936;2022-11-15T06:02:47;3.33;;;2.17;;
22332;SDS011;11334;36.986;-121.936;2022-11-15T06:05:13;3.42;;;1.75;;
22332;SDS011;11334;36.986;-121.936;2022-11-15T06:07:40;4.10;;;2.33;;
22332;SDS011;11334;36.986;-121.936;2022-11-15T06:10:06;3.35;;;1.90;;
22332;SDS011;11334;36.986;-121.936;2022-11-15T06:12:33;7.10;;;2.70;;
22332;SDS011;11334;36.986;-121.936;2022-11-15T06:14:59;3.35;;;2.78;;
22332;SDS011;11334;36.986;-121.936;2022-11-15T06:17:25;3.22;;;2.70;;
22332;SDS011;11334;36.986;-121.936;2022-11-15T06:19:51;3.28;;;2.22;;
22332;SDS011;11334;36.986;-121.936;2022-11-15T06:22:17;3.45;;;2.58;;
22332;SDS011;11334;36.986;-121.936;2022-11-15T06:24:43;6.47;;;2.95;;
22332;SDS011;11334;36.986;-121.936;2022-11-15T06:27:10;3.75;;;2.17;;
22332;SDS011;11334;36.986;-121.936;2022-11-15T06:29:37;3.08;;;2.25;;
22332;SDS011;11334;36.986;-121.936;2022-11-15T06:32:03;7.88;;;2.10;;
22332;SDS011;11334;36.986;-121.936;2022-11-15T06:34:30;4.30;;;1.90;;
22332;SDS011;11334;36.986;-121.936;2022-11-15T06:36:56;4.03;;;2.30;;
22332;SDS011;11334;36.986;-121.936;2022-11-15T06:39:22;4.93;;;2.03;;
22332;SDS011;11334;36.986;-121.936;2022-11-15T06:41:48;4.90;;;2.25;;
22332;SDS011;11334;36.986;-121.936;2022-11-15T06:44:14;6.65;;;1.92;;
22332;SDS011;11334;36.986;-121.936;2022-11-15T06:46:41;4.63;;;1.90;;
22332;SDS011;11334;36.986;-121.936;2022-11-15T06:49:07;5.13;;;2.00;;
22332;SDS011;11334;36.986;-121.936;2022-11-15T06:51:34;7.30;;;2.20;;
22332;SDS011;11334;36.986;-121.936;2022-11-15T06:54:00;2.15;;;1.90;;
22332;SDS011;11334;36.986;-121.936;2022-11-15T06:56:26;3.95;;;2.13;;
22332;SDS011;11334;36.986;-121.936;2022-11-15T06:58:52;2.80;;;1.95;;
22332;SDS011;11334;36.986;-121.936;2022-11-15T07:01:18;2.50;;;1.92;;
22332;SDS011;11334;36.986;-121.936;2022-11-15T07:03:44;5.40;;;2.15;;
22332;SDS011;11334;36.986;-121.936;2022-11-15T07:06:11;3.78;;;1.90;;
22332;SDS011;11334;36.986;-121.936;2022-11-15T07:08:37;2.65;;;1.80;;
22332;SDS011;11334;36.986;-121.936;2022-11-15T07:11:05;4.10;;;1.52;;
22332;SDS011;11334;36.986;-121.936;2022-11-15T07:13:35;4.25;;;1.60;;
22332;SDS011;11334;36.986;-121.936;2022-11-15T07:16:06;5.43;;;1.60;;
22332;SDS011;11334;36.986;-121.936;2022-11-15T07:18:34;2.67;;;1.50;;
22332;SDS011;11334;36.986;-121.936;2022-11-15T07:21:05;4.30;;;1.73;;
22332;SDS011;11334;36.986;-121.936;2022-11-15T07:23:35;3.90;;;2.22;;
22332;SDS011;11334;36.986;-121.936;2022-11-15T07:26:03;4.45;;;1.48;;
22332;SDS011;11334;36.986;-121.936;2022-11-15T07:28:29;2.60;;;1.88;;
22332;SDS011;11334;36.986;-121.936;2022-11-15T07:30:55;2.35;;;1.92;;
22332;SDS011;11334;36.986;-121.936;2022-11-15T07:33:22;3.08;;;1.90;;
22332;SDS011;11334;36.986;-121.936;2022-11-15T07:35:48;3.40;;;1.30;;
22332;SDS011;11334;36.986;-121.936;2022-11-15T07:38:14;2.40;;;1.60;;
22332;SDS011;11334;36.986;-121.936;2022-11-15T07:40:44;3.33;;;1.55;;
22332;SDS011;11334;36.986;-121.936;2022-11-15T07:43:11;4.72;;;1.55;;
22332;SDS011;11334;36.986;-121.936;2022-11-15T07:45:44;2.97;;;1.83;;
22332;SDS011;11334;36.986;-121.936;2022-11-15T07:48:11;2.80;;;1.42;;
22332;SDS011;11334;36.986;-121.936;2022-11-15T07:50:40;2.80;;;1.60;;
22332;SDS011;11334;36.986;-121.936;2022-11-15T07:53:08;3.45;;;1.40;;
22332;SDS011;11334;36.986;-121.936;2022-11-15T07:55:35;3.05;;;1.65;;
22332;SDS011;11334;36.986;-121.936;2022-11-15T07:58:02;2.80;;;2.00;;
22332;SDS011;11334;36.986;-121.936;2022-11-15T08:00:30;3.50;;;1.63;;
22332;SDS011;11334;36.986;-121.936;2022-11-15T08:05:31;4.18;;;1.60;;
22332;SDS011;11334;36.986;-121.936;2022-11-15T08:07:59;3.40;;;1.45;;
22332;SDS011;11334;36.986;-121.936;2022-11-15T08:10:25;2.28;;;1.60;;
22332;SDS011;11334;36.986;-121.936;2022-11-15T08:13:06;2.08;;;1.73;;
22332;SDS011;11334;36.986;-121.936;2022-11-15T08:15:34;3.08;;;1.35;;
22332;SDS011;11334;36.986;-121.936;2022-11-15T08:18:03;2.60;;;1.48;;
22332;SDS011;11334;36.986;-121.936;2022-11-15T08:20:31;1.92;;;1.42;;
22332;SDS011;11334;36.986;-121.936;2022-11-15T08:22:59;4.35;;;1.90;;
22332;SDS011;11334;36.986;-121.936;2022-11-15T08:25:27;7.00;;;1.95;;
22332;SDS011;11334;36.986;-121.936;2022-11-15T08:27:56;4.38;;;1.98;;
22332;SDS011;11334;36.986;-121.936;2022-11-15T08:30:24;3.97;;;1.95;;
22332;SDS011;11334;36.986;-121.936;2022-11-15T08:32:51;1.77;;;1.60;;
22332;SDS011;11334;36.986;-121.936;2022-11-15T08:35:19;3.88;;;1.50;;
22332;SDS011;11334;36.986;-121.936;2022-11-15T08:37:46;2.30;;;1.55;;
22332;SDS011;11334;36.986;-121.936;2022-11-15T08:40:12;2.55;;;1.50;;
22332;SDS011;11334;36.986;-121.936;2022-11-15T08:42:39;3.60;;;1.75;;
22332;SDS011;11334;36.986;-121.936;2022-11-15T08:45:06;2.70;;;1.20;;
22332;SDS011;11334;36.986;-121.936;2022-11-15T08:47:33;2.60;;;1.38;;
22332;SDS011;11334;36.986;-121.936;2022-11-15T08:50:00;2.83;;;1.50;;
22332;SDS011;11334;36.986;-121.936;2022-11-15T08:52:26;3.25;;;1.88;;
22332;SDS011;11334;36.986;-121.936;2022-11-15T08:54:52;3.13;;;1.60;;
22332;SDS011;11334;36.986;-121.936;2022-11-15T08:57:18;2.42;;;1.23;;
22332;SDS011;11334;36.986;-121.936;2022-11-15T08:59:44;3.85;;;1.52;;
22332;SDS011;11334;36.986;-121.936;2022-11-15T09:02:14;1.75;;;1.45;;
22332;SDS011;11334;36.986;-121.936;2022-11-15T09:04:41;1.95;;;1.70;;
22332;SDS011;11334;36.986;-121.936;2022-11-15T09:07:08;1.90;;;1.50;;
22332;SDS011;11334;36.986;-121.936;2022-11-15T09:09:36;3.05;;;1.40;;
22332;SDS011;11334;36.986;-121.936;2022-11-15T09:12:03;2.65;;;1.55;;
22332;SDS011;11334;36.986;-121.936;2022-11-15T09:14:31;1.95;;;1.63;;
22332;SDS011;11334;36.986;-121.936;2022-11-15T09:16:57;3.00;;;1.55;;
22332;SDS011;11334;36.986;-121.936;2022-11-15T09:19:23;2.90;;;1.60;;
22332;SDS011;11334;36.986;-121.936;2022-11-15T09:21:49;3.13;;;1.40;;
22332;SDS011;11334;36.986;-121.936;2022-11-15T09:24:16;3.90;;;1.95;;
22332;SDS011;11334;36.986;-121.936;2022-11-15T09:26:43;4.28;;;1.65;;
22332;SDS011;11334;36.986;-121.936;2022-11-15T09:29:09;3.45;;;1.70;;
22332;SDS011;11334;36.986;-121.936;2022-11-15T09:31:36;2.75;;;1.55;;
22332;SDS011;11334;36.986;-121.936;2022-11-15T09:34:02;3.67;;;1.42;;
22332;SDS011;11334;36.986;-121.936;2022-11-15T09:36:28;2.10;;;1.50;;
22332;SDS011;11334;36.986;-121.936;2022-11-15T09:38:54;5.18;;;1.70;;
22332;SDS011;11334;36.986;-121.936;2022-11-15T09:49:53;2.55;;;1.75;;
22332;SDS011;11334;36.986;-121.936;2022-11-15T09:52:22;3.80;;;1.65;;
22332;SDS011;11334;36.986;-121.936;2022-11-15T09:54:49;1.73;;;1.15;;
22332;SDS011;11334;36.986;-121.936;2022-11-15T09:57:22;4.32;;;1.98;;
22332;SDS011;11334;36.986;-121.936;2022-11-15T10:00:15;4.35;;;2.10;;
22332;SDS011;11334;36.986;-121.936;2022-11-15T10:05:38;2.45;;;1.30;;
22332;SDS011;11334;36.986;-121.936;2022-11-15T10:11:41;2.10;;;1.70;;
22332;SDS011;11334;36.986;-121.936;2022-11-15T10:13:54;5.03;;;1.70;;
22332;SDS011;11334;36.986;-121.936;2022-11-15T10:24:44;2.70;;;1.83;;
22332;SDS011;11334;36.986;-121.936;2022-11-15T10:27:15;6.65;;;1.88;;
22332;SDS011;11334;36.986;-121.936;2022-11-15T10:29:43;4.60;;;2.53;;
22332;SDS011;11334;36.986;-121.936;2022-11-15T10:32:12;2.78;;;1.90;;
22332;SDS011;11334;36.986;-121.936;2022-11-15T10:34:40;3.83;;;1.50;;
22332;SDS011;11334;36.986;-121.936;2022-11-15T10:37:06;2.78;;;1.80;;
22332;SDS011;11334;36.986;-121.936;2022-11-15T10:39:34;4.20;;;1.40;;
22332;SDS011;11334;36.986;-121.936;2022-11-15T10:45:22;3.75;;;1.38;;
22332;SDS011;11334;36.986;-121.936;2022-11-15T10:47:50;2.15;;;1.13;;
22332;SDS011;11334;36.986;-121.936;2022-11-15T10:50:30;4.05;;;1.40;;
22332;SDS011;11334;36.986;-121.936;2022-11-15T10:52:58;2.50;;;1.33;;
22332;SDS011;11334;36.986;-121.936;2022-11-15T10:55:28;2.55;;;1.33;;
22332;SDS011;11334;36.986;-121.936;2022-11-15T10:58:39;4.13;;;1.58;;
22332;SDS011;11334;36.986;-121.936;2022-11-15T11:00:46;7.90;;;1.13;;
22332;SDS011;11334;36.986;-121.936;2022-11-15T11:03:29;5.47;;;1.55;;
22332;SDS011;11334;36.986;-121.936;2022-11-15T11:06:15;1.65;;;1.00;;
22332;SDS011;11334;36.986;-121.936;2022-11-15T11:08:58;1.42;;;1.20;;
22332;SDS011;11334;36.986;-121.936;2022-11-15T11:11:46;5.38;;;1.60;;
22332;SDS011;11334;36.986;-121.936;2022-11-15T11:14:23;3.22;;;1.75;;
22332;SDS011;11334;36.986;-121.936;2022-11-15T11:17:00;1.27;;;1.15;;
22332;SDS011;11334;36.986;-121.936;2022-11-15T11:22:24;1.38;;;1.00;;
22332;SDS011;11334;36.986;-121.936;2022-11-15T11:25:16;1.48;;;1.10;;
22332;SDS011;11334;36.986;-121.936;2022-11-15T11:31:07;3.72;;;1.65;;
22332;SDS011;11334;36.986;-121.936;2022-11-15T11:47:38;3.92;;;2.10;;
22332;SDS011;11334;36.986;-121.936;2022-11-15T11:50:19;3.33;;;2.05;;
22332;SDS011;11334;36.986;-121.936;2022-11-15T11:52:55;2.30;;;1.67;;
22332;SDS011;11334;36.986;-121.936;2022-11-15T12:00:43;3.33;;;1.60;;
22332;SDS011;11334;36.986;-121.936;2022-11-15T12:06:27;2.15;;;1.67;;
22332;SDS011;11334;36.986;-121.936;2022-11-15T12:09:03;2.67;;;1.70;;
22332;SDS011;11334;36.986;-121.936;2022-11-15T12:11:50;1.77;;;1.45;;
22332;SDS011;11334;36.986;-121.936;2022-11-15T12:14:32;1.88;;;1.48;;
22332;SDS011;11334;36.986;-121.936;2022-11-15T12:16:59;2.33;;;1.50;;
22332;SDS011;11334;36.986;-121.936;2022-11-15T12:19:26;2.03;;;1.27;;
22332;SDS011;11334;36.986;-121.936;2022-11-15T12:27:12;3.05;;;1.30;;
22332;SDS011;11334;36.986;-121.936;2022-11-15T12:29:47;1.45;;;1.20;;
22332;SDS011;11334;36.986;-121.936;2022-11-15T12:34:44;2.03;;;1.25;;
22332;SDS011;11334;36.986;-121.936;2022-11-15T12:37:33;2.03;;;1.10;;
22332;SDS011;11334;36.986;-121.936;2022-11-15T12:45:34;3.13;;;1.10;;
22332;SDS011;11334;36.986;-121.936;2022-11-15T12:49:08;1.30;;;1.20;;
22332;SDS011;11334;36.986;-121.936;2022-11-15T12:51:00;2.95;;;1.13;;
22332;SDS011;11334;36.986;-121.936;2022-11-15T12:53:28;2.95;;;1.20;;
22332;SDS011;11334;36.986;-121.936;2022-11-15T12:58:44;3.33;;;1.40;;
22332;SDS011;11334;36.986;-121.936;2022-11-15T13:20:31;3.67;;;1.23;;
22332;SDS011;11334;36.986;-121.936;2022-11-15T13:22:45;2.60;;;1.27;;
22332;SDS011;11334;36.986;-121.936;2022-11-15T13:35:47;4.53;;;1.08;;
22332;SDS011;11334;36.986;-121.936;2022-11-15T13:38:25;1.95;;;1.45;;
22332;SDS011;11334;36.986;-121.936;2022-11-15T13:40:53;2.63;;;1.40;;
22332;SDS011;11334;36.986;-121.936;2022-11-15T13:46:05;3.95;;;1.30;;
22332;SDS011;11334;36.986;-121.936;2022-11-15T13:48:57;2.33;;;1.50;;
22332;SDS011;11334;36.986;-121.936;2022-11-15T13:54:09;5.45;;;1.55;;
22332;SDS011;11334;36.986;-121.936;2022-11-15T13:56:56;3.58;;;1.60;;
22332;SDS011;11334;36.986;-121.936;2022-11-15T13:59:28;2.25;;;2.05;;
22332;SDS011;11334;36.986;-121.936;2022-11-15T14:01:57;2.45;;;1.83;;
22332;SDS011;11334;36.986;-121.936;2022-11-15T14:04:27;3.53;;;1.70;;
22332;SDS011;11334;36.986;-121.936;2022-11-15T14:06:59;2.85;;;1.60;;
22332;SDS011;11334;36.986;-121.936;2022-11-15T14:09:35;2.22;;;1.42;;
22332;SDS011;11334;36.986;-121.936;2022-11-15T14:14:58;5.57;;;1.60;;
22332;SDS011;11334;36.986;-121.936;2022-11-15T14:19:56;2.70;;;1.88;;
22332;SDS011;11334;36.986;-121.936;2022-11-15T14:22:23;4.22;;;1.80;;
22332;SDS011;11334;36.986;-121.936;2022-11-15T14:27:41;4.28;;;2.55;;
22332;SDS011;11334;36.986;-121.936;2022-11-15T14:30:13;4.47;;;2.08;;
22332;SDS011;11334;36.986;-121.936;2022-11-15T14:32:46;2.85;;;1.98;;
22332;SDS011;11334;36.986;-121.936;2022-11-15T14:35:18;3.40;;;2.42;;
22332;SDS011;11334;36.986;-121.936;2022-11-15T14:37:46;3.40;;;2.20;;
22332;SDS011;11334;36.986;-121.936;2022-11-15T14:40:14;4.78;;;2.47;;
22332;SDS011;11334;36.986;-121.936;2022-11-15T14:42:43;3.97;;;1.67;;
22332;SDS011;11334;36.986;-121.936;2022-11-15T14:45:18;4.45;;;2.28;;
22332;SDS011;11334;36.986;-121.936;2022-11-15T14:47:46;2.03;;;1.67;;
22332;SDS011;11334;36.986;-121.936;2022-11-15T14:52:43;4.68;;;1.65;;
22332;SDS011;11334;36.986;-121.936;2022-11-15T14:55:23;6.28;;;1.88;;
22332;SDS011;11334;36.986;-121.936;2022-11-15T14:57:52;4.47;;;2.05;;
22332;SDS011;11334;36.986;-121.936;2022-11-15T15:00:19;2.47;;;1.63;;
22332;SDS011;11334;36.986;-121.936;2022-11-15T15:02:46;2.88;;;1.90;;
22332;SDS011;11334;36.986;-121.936;2022-11-15T15:07:56;4.60;;;1.83;;
22332;SDS011;11334;36.986;-121.936;2022-11-15T15:10:22;4.10;;;1.75;;
22332;SDS011;11334;36.986;-121.936;2022-11-15T15:12:49;3.97;;;2.60;;
22332;SDS011;11334;36.986;-121.936;2022-11-15T15:15:16;4.63;;;1.80;;
22332;SDS011;11334;36.986;-121.936;2022-11-15T15:17:47;2.17;;;1.98;;
22332;SDS011;11334;36.986;-121.936;2022-11-15T15:20:13;3.15;;;1.95;;
22332;SDS011;11334;36.986;-121.936;2022-11-15T15:22:40;4.88;;;1.52;;
22332;SDS011;11334;36.986;-121.936;2022-11-15T15:25:49;2.67;;;1.63;;
22332;SDS011;11334;36.986;-121.936;2022-11-15T15:27:58;1.77;;;1.67;;
22332;SDS011;11334;36.986;-121.936;2022-11-15T15:30:25;5.40;;;2.22;;
22332;SDS011;11334;36.986;-121.936;2022-11-15T15:32:52;4.63;;;2.10;;
22332;SDS011;11334;36.986;-121.936;2022-11-15T15:35:19;6.13;;;2.80;;
22332;SDS011;11334;36.986;-121.936;2022-11-15T15:37:46;3.42;;;2.42;;
22332;SDS011;11334;36.986;-121.936;2022-11-15T15:40:17;5.30;;;2.97;;
22332;SDS011;11334;36.986;-121.936;2022-11-15T15:42:48;4.60;;;2.47;;
22332;SDS011;11334;36.986;-121.936;2022-11-15T15:45:16;4.53;;;2.40;;
22332;SDS011;11334;36.986;-121.936;2022-11-15T15:47:43;5.88;;;2.85;;
22332;SDS011;11334;36.986;-121.936;2022-11-15T15:50:16;6.95;;;5.47;;
22332;SDS011;11334;36.986;-121.936;2022-11-15T15:52:44;6.85;;;4.35;;
22332;SDS011;11334;36.986;-121.936;2022-11-15T15:55:10;6.13;;;5.53;;
22332;SDS011;11334;36.986;-121.936;2022-11-15T15:57:36;7.47;;;6.63;;
22332;SDS011;11334;36.986;-121.936;2022-11-15T16:00:03;6.25;;;5.07;;
22332;SDS011;11334;36.986;-121.936;2022-11-15T16:02:30;7.22;;;5.10;;
22332;SDS011;11334;36.986;-121.936;2022-11-15T16:04:56;5.75;;;4.22;;
22332;SDS011;11334;36.986;-121.936;2022-11-15T16:07:22;6.65;;;3.97;;
22332;SDS011;11334;36.986;-121.936;2022-11-15T16:09:49;6.45;;;3.50;;
22332;SDS011;11334;36.986;-121.936;2022-11-15T16:12:28;6.75;;;2.72;;
22332;SDS011;11334;36.986;-121.936;2022-11-15T16:14:59;9.38;;;3.42;;
22332;SDS011;11334;36.986;-121.936;2022-11-15T16:17:31;4.57;;;2.95;;
22332;SDS011;11334;36.986;-121.936;2022-11-15T16:20:00;9.60;;;3.38;;
22332;SDS011;11334;36.986;-121.936;2022-11-15T16:22:27;4.53;;;3.08;;
22332;SDS011;11334;36.986;-121.936;2022-11-15T16:24:54;7.07;;;3.42;;
22332;SDS011;11334;36.986;-121.936;2022-11-15T16:27:20;5.47;;;3.45;;
22332;SDS011;11334;36.986;-121.936;2022-11-15T16:29:47;9.38;;;4.13;;
22332;SDS011;11334;36.986;-121.936;2022-11-15T16:32:14;7.50;;;4.13;;
22332;SDS011;11334;36.986;-121.936;2022-11-15T16:34:42;11.57;;;4.70;;
22332;SDS011;11334;36.986;-121.936;2022-11-15T16:37:13;12.55;;;4.45;;
22332;SDS011;11334;36.986;-121.936;2022-11-15T16:39:48;15.07;;;4.28;;
22332;SDS011;11334;36.986;-121.936;2022-11-15T16:42:15;21.08;;;5.63;;
22332;SDS011;11334;36.986;-121.936;2022-11-15T16:44:41;18.40;;;6.13;;
22332;SDS011;11334;36.986;-121.936;2022-11-15T16:47:17;14.02;;;5.53;;
22332;SDS011;11334;36.986;-121.936;2022-11-15T16:49:47;14.15;;;4.50;;
22332;SDS011;11334;36.986;-121.936;2022-11-15T16:52:13;17.98;;;5.95;;
22332;SDS011;11334;36.986;-121.936;2022-11-15T16:54:40;22.73;;;6.18;;
22332;SDS011;11334;36.986;-121.936;2022-11-15T16:57:07;13.27;;;4.43;;
22332;SDS011;11334;36.986;-121.936;2022-11-15T16:59:35;16.38;;;5.55;;
22332;SDS011;11334;36.986;-121.936;2022-11-15T17:02:01;27.75;;;5.82;;
22332;SDS011;11334;36.986;-121.936;2022-11-15T17:04:27;13.68;;;4.47;;
22332;SDS011;11334;36.986;-121.936;2022-11-15T17:06:58;17.73;;;5.03;;
22332;SDS011;11334;36.986;-121.936;2022-11-15T17:09:24;16.15;;;5.10;;